This is the latest recevied weather packets stored in our database for station/object EA3EH-1. If no packets are shown the sender has not sent any weather packets the latest 10 day(s).
| Time | Temp. | Humidity | Pressure | Rain* | Wind** | Luminosity | Snow |
|---|---|---|---|---|---|---|---|
| 1777113705 | 22.22° C | 21% | 1014 hPa | 0 mm | - | - | - |
| 1777113406 | 22.22° C | 22% | 1014 hPa | 0 mm | - | - | - |
| 1777112805 | 21.67° C | 23% | 1014 hPa | 0 mm | - | - | - |
| 1777112504 | 21.67° C | 23% | 1014 hPa | 0 mm | - | - | - |
| 1777111607 | 21.11° C | 24% | 1014 hPa | 0 mm | - | - | - |
| 1777109805 | 20° C | 28% | 1015 hPa | 0 mm | - | - | - |
| 1777109507 | 20° C | 30% | 1015 hPa | 0 mm | - | - | - |
| 1777109204 | 19.44° C | 32% | 1015 hPa | 0 mm | - | - | - |
| 1777108936 | 19.44° C | 32% | 1015 hPa | 0 mm | - | - | - |
| 1777108905 | 19.44° C | 32% | 1015 hPa | 0 mm | - | - | - |
| 1777108606 | 18.89° C | 33% | 1015 hPa | 0 mm | - | - | - |
| 1777108306 | 18.89° C | 33% | 1015 hPa | 0 mm | - | - | - |
| 1777108006 | 18.33° C | 33% | 1015 hPa | 0 mm | - | - | - |
| 1777107704 | 18.33° C | 35% | 1015 hPa | 0 mm | - | - | - |
| 1777106806 | 17.22° C | 36% | 1015 hPa | 0 mm | - | - | - |
| 1777106504 | 17.22° C | 37% | 1015 hPa | 0 mm | - | - | - |
| 1777105306 | 16.11° C | 41% | 1015 hPa | 0 mm | - | - | - |
| 1777105006 | 16.11° C | 44% | 1015 hPa | 0 mm | - | - | - |
| 1777104706 | 15.56° C | 43% | 1015 hPa | 0 mm | - | - | - |
| 1777104406 | 15.56° C | 44% | 1015 hPa | 0 mm | - | - | - |
| 1777104107 | 15° C | 47% | 1015 hPa | 0 mm | - | - | - |
| 1777103206 | 14.44° C | 51% | 1015 hPa | 0 mm | - | - | - |
| 1777102904 | 14.44° C | 53% | 1015 hPa | 0 mm | - | - | - |
| 1777102307 | 13.89° C | 56% | 1015 hPa | 0 mm | - | - | - |
| 1777100806 | 12.22° C | 61% | 1015 hPa | 0 mm | - | - | - |
* Rain latest hour (hover to see other rain measurements)
** Current wind speed in m/s (hover to see current wind gust speed)